Time;durP1;ratioP1;P1;durP2;ratioP2;P2;SDS_P1;SDS_P2;PMS_P1;PMS_P2;Temp;Humidity;BMP_temperature;BMP_pressure;BME280_temperature;BME280_humidity;BME280_pressure;Samples;Min_cycle;Max_cycle;Signal;HPM_P1;HPM_P2
2022/01/14 00:02:14;;;;;;;54.10;13.70;;;0.90;92.20;;;;;;4996488;28;20120;-82
2022/01/14 00:04:40;;;;;;;37.00;13.45;;;0.90;92.30;;;;;;5017262;28;20029;-82
2022/01/14 00:07:05;;;;;;;30.42;13.27;;;0.80;92.20;;;;;;5011520;28;20052;-82
2022/01/14 00:09:32;;;;;;;63.50;13.35;;;0.90;92.30;;;;;;4997619;28;20069;-82
2022/01/14 00:11:59;;;;;;;49.05;12.05;;;0.80;92.20;;;;;;5034768;28;20040;-82
2022/01/14 00:14:42;;;;;;;43.13;12.23;;;0.90;92.30;;;;;;5017965;28;20037;-81
2022/01/14 00:17:12;;;;;;;66.43;13.85;;;0.90;92.30;;;;;;5011335;28;20033;-81
2022/01/14 00:19:38;;;;;;;36.17;13.20;;;0.90;92.30;;;;;;5031559;28;20033;-82
2022/01/14 00:22:09;;;;;;;62.28;13.20;;;0.90;92.30;;;;;;5027224;28;20379;-83
2022/01/14 00:33:01;;;;;;;60.58;13.30;;;0.90;92.30;;;;;;5010113;28;20044;-80
2022/01/14 00:35:27;;;;;;;46.47;12.27;;;0.90;92.30;;;;;;5000495;28;20100;-82
2022/01/14 00:37:53;;;;;;;43.00;11.75;;;0.90;92.30;;;;;;5016755;28;20057;-82
2022/01/14 00:40:18;;;;;;;49.35;12.35;;;0.90;92.30;;;;;;5019621;28;20033;-79
2022/01/14 00:42:45;;;;;;;50.33;12.50;;;0.90;92.30;;;;;;5018250;28;20808;-83
2022/01/14 00:45:11;;;;;;;38.65;11.38;;;0.90;92.40;;;;;;4996607;28;20066;-83
2022/01/14 00:47:37;;;;;;;55.13;11.65;;;0.90;92.30;;;;;;5031641;28;20352;-82
2022/01/14 00:50:05;;;;;;;54.85;12.32;;;0.90;92.30;;;;;;4997995;28;20055;-82
2022/01/14 00:52:30;;;;;;;53.92;12.65;;;0.90;92.30;;;;;;5033001;28;20060;-82
2022/01/14 00:54:56;;;;;;;62.85;12.07;;;0.90;92.30;;;;;;5011596;28;20104;-83
2022/01/14 00:59:14;;;;;;;51.58;12.65;;;0.90;92.40;;;;;;4992500;28;20434;-83
2022/01/14 01:00:14;;;;;;;48.20;13.45;;;0.90;92.40;;;;;;5021512;28;20047;-82
2022/01/14 01:02:40;;;;;;;60.63;13.30;;;0.90;92.30;;;;;;5013089;28;20029;-82
2022/01/14 01:05:05;;;;;;;92.00;12.02;;;0.90;92.30;;;;;;5013003;28;20055;-82
2022/01/14 01:07:31;;;;;;;58.78;11.73;;;0.80;92.30;;;;;;5023178;28;20506;-82
2022/01/14 01:09:56;;;;;;;52.55;12.40;;;0.80;92.30;;;;;;5028452;28;20025;-82
2022/01/14 01:15:14;;;;;;;30.55;10.32;;;0.80;92.40;;;;;;5001339;28;20062;-82
2022/01/14 01:17:39;;;;;;;60.20;11.63;;;0.80;92.40;;;;;;5043940;28;20127;-82
2022/01/14 01:20:12;;;;;;;50.33;10.95;;;0.80;92.40;;;;;;5015345;28;20105;-83
2022/01/14 01:22:38;;;;;;;80.65;12.30;;;0.80;92.40;;;;;;5027266;28;20024;-82
2022/01/14 01:25:05;;;;;;;34.90;11.60;;;0.80;92.50;;;;;;5027421;28;20029;-82
2022/01/14 01:27:37;;;;;;;42.63;11.52;;;0.80;92.50;;;;;;5003360;28;20045;-82
2022/01/14 01:30:14;;;;;;;83.38;12.88;;;0.80;92.50;;;;;;5015187;28;20038;-82
2022/01/14 01:32:40;;;;;;;80.57;10.43;;;0.80;92.50;;;;;;5031144;28;20036;-82
2022/01/14 01:35:06;;;;;;;59.78;12.38;;;0.80;92.40;;;;;;4997184;28;20461;-81
2022/01/14 01:37:31;;;;;;;44.15;10.82;;;0.80;92.50;;;;;;5004491;28;20040;-83
2022/01/14 01:39:57;;;;;;;39.08;10.73;;;0.80;92.40;;;;;;5025778;28;20028;-84
2022/01/14 01:42:27;;;;;;;56.22;11.73;;;0.80;92.40;;;;;;5017822;28;20033;-82
2022/01/14 01:44:53;;;;;;;28.38;10.98;;;0.80;92.40;;;;;;5018508;28;20040;-84
2022/01/14 01:47:21;;;;;;;27.70;9.85;;;0.80;92.50;;;;;;5002963;28;20045;-82
2022/01/14 01:49:47;;;;;;;49.85;10.90;;;0.80;92.50;;;;;;5035208;28;20501;-82
2022/01/14 01:52:12;;;;;;;42.83;10.70;;;0.80;92.50;;;;;;5029677;28;20049;-81
2022/01/14 01:54:38;;;;;;;45.63;11.60;;;0.80;92.50;;;;;;5014064;28;20040;-80
2022/01/14 01:57:04;;;;;;;25.50;10.30;;;0.80;92.50;;;;;;5007620;28;20452;-82
2022/01/14 01:59:29;;;;;;;31.00;10.38;;;0.80;92.50;;;;;;5025277;28;20057;-81
2022/01/14 02:01:56;;;;;;;22.90;9.73;;;0.80;92.50;;;;;;5016552;28;20061;-81
2022/01/14 02:04:22;;;;;;;31.50;11.18;;;0.70;92.50;;;;;;5002035;28;20722;-81
2022/01/14 02:06:47;;;;;;;28.60;10.73;;;0.80;92.50;;;;;;4997242;28;20066;-84
2022/01/14 02:09:13;;;;;;;28.80;10.13;;;0.80;92.50;;;;;;5018770;28;20171;-81
2022/01/14 02:11:39;;;;;;;22.13;9.15;;;0.70;92.50;;;;;;5012313;28;20036;-84
2022/01/14 02:14:13;;;;;;;22.88;10.48;;;0.70;92.50;;;;;;5025958;28;20040;-82
2022/01/14 02:19:30;;;;;;;19.33;9.73;;;0.70;92.50;;;;;;5010050;28;20055;-83
2022/01/14 02:22:12;;;;;;;22.65;10.25;;;0.70;92.50;;;;;;5022257;28;20115;-82
2022/01/14 02:27:12;;;;;;;24.52;10.95;;;0.80;92.50;;;;;;4999236;28;20036;-82
2022/01/14 02:29:38;;;;;;;23.75;10.27;;;0.80;92.60;;;;;;5017062;28;20057;-81
2022/01/14 02:32:04;;;;;;;25.80;10.32;;;0.80;92.50;;;;;;5027549;28;20072;-81
2022/01/14 02:34:29;;;;;;;23.08;10.80;;;0.80;92.50;;;;;;5020512;28;20052;-82
2022/01/14 02:36:55;;;;;;;23.02;10.68;;;0.80;92.50;;;;;;5024641;28;20037;-82
2022/01/14 02:39:20;;;;;;;19.30;9.27;;;0.80;92.50;;;;;;5010901;28;20028;-81
2022/01/14 02:41:48;;;;;;;21.13;10.07;;;0.80;92.50;;;;;;5018034;28;20037;-81
2022/01/14 02:44:18;;;;;;;21.85;10.05;;;0.80;92.50;;;;;;4996107;28;20036;-82
2022/01/14 02:46:52;;;;;;;23.60;11.57;;;0.80;92.50;;;;;;5000064;28;20025;-82
2022/01/14 02:49:18;;;;;;;19.52;9.80;;;0.80;92.50;;;;;;5010542;28;20029;-83
2022/01/14 02:51:44;;;;;;;21.55;10.63;;;0.80;92.50;;;;;;5016137;28;20024;-82
2022/01/14 02:54:13;;;;;;;19.45;9.27;;;0.80;92.50;;;;;;5000816;28;20483;-81
2022/01/14 02:56:40;;;;;;;21.20;10.57;;;0.70;92.50;;;;;;5040086;28;20728;-82
2022/01/14 02:59:05;;;;;;;18.25;10.15;;;0.80;92.50;;;;;;5026312;28;20090;-82
2022/01/14 03:01:31;;;;;;;18.73;9.55;;;0.80;92.50;;;;;;5010748;28;20029;-82
2022/01/14 03:03:57;;;;;;;20.15;10.10;;;0.70;92.50;;;;;;5025996;28;20029;-81
2022/01/14 03:06:23;;;;;;;19.85;9.85;;;0.80;92.50;;;;;;5029355;28;20047;-81
2022/01/14 03:08:48;;;;;;;23.05;10.32;;;0.80;92.50;;;;;;4987094;28;20024;-83
2022/01/14 03:11:17;;;;;;;20.63;10.02;;;0.80;92.50;;;;;;5042400;28;20454;-82
2022/01/14 03:13:43;;;;;;;22.23;10.48;;;0.80;92.50;;;;;;4991714;28;20037;-83
2022/01/14 03:16:08;;;;;;;16.92;8.98;;;0.70;92.40;;;;;;5026265;28;20116;-83
2022/01/14 03:18:44;;;;;;;18.00;9.20;;;0.80;92.40;;;;;;5025329;28;20040;-82
2022/01/14 03:21:12;;;;;;;21.75;10.45;;;0.70;92.40;;;;;;5027251;28;20581;-82
2022/01/14 03:23:44;;;;;;;19.92;10.10;;;0.80;92.50;;;;;;5031155;28;20418;-83
2022/01/14 03:26:14;;;;;;;19.20;9.77;;;0.70;92.40;;;;;;5029105;28;20079;-82
2022/01/14 03:28:39;;;;;;;18.05;9.50;;;0.70;92.40;;;;;;4999800;28;20057;-82
2022/01/14 03:31:05;;;;;;;20.52;10.15;;;0.70;92.40;;;;;;4997893;28;20565;-82
2022/01/14 03:33:30;;;;;;;19.38;9.80;;;0.70;92.40;;;;;;5019731;28;20102;-82
2022/01/14 03:35:56;;;;;;;21.95;10.38;;;0.70;92.50;;;;;;4998515;28;20120;-82
2022/01/14 03:38:21;;;;;;;23.92;10.60;;;0.70;92.50;;;;;;5027714;28;20111;-83
2022/01/14 03:40:47;;;;;;;18.48;9.45;;;0.70;92.50;;;;;;5026711;28;20063;-83
2022/01/14 03:43:12;;;;;;;24.38;10.88;;;0.70;92.50;;;;;;5017253;28;20071;-82
2022/01/14 03:45:39;;;;;;;19.60;9.80;;;0.70;92.50;;;;;;5029432;28;20064;-82
2022/01/14 03:48:06;;;;;;;21.38;10.77;;;0.70;92.50;;;;;;5025584;28;20021;-82
2022/01/14 03:50:32;;;;;;;26.63;11.23;;;0.70;92.50;;;;;;5000900;28;20029;-84
2022/01/14 03:52:58;;;;;;;22.52;11.07;;;0.70;92.50;;;;;;5025887;28;20032;-82
2022/01/14 03:55:23;;;;;;;22.13;11.30;;;0.70;92.50;;;;;;5000485;28;20029;-82
2022/01/14 03:57:49;;;;;;;21.80;10.55;;;0.70;92.50;;;;;;4996090;28;20022;-81
2022/01/14 04:00:15;;;;;;;20.50;10.32;;;0.70;92.50;;;;;;5032385;28;20041;-82
2022/01/14 04:02:41;;;;;;;19.60;9.35;;;0.70;92.50;;;;;;5041139;28;20021;-81
2022/01/14 04:05:07;;;;;;;19.40;10.00;;;0.70;92.80;;;;;;5026694;28;20383;-82
2022/01/14 04:07:33;;;;;;;21.65;10.05;;;0.70;92.50;;;;;;5025472;28;20025;-82
2022/01/14 04:09:58;;;;;;;18.75;9.68;;;0.70;92.40;;;;;;5024632;28;20026;-82
2022/01/14 04:12:45;;;;;;;20.67;10.80;;;0.70;92.50;;;;;;5018271;28;20072;-81
2022/01/14 04:17:56;;;;;;;21.85;10.80;;;0.70;92.40;;;;;;5034158;28;20052;-81
2022/01/14 04:20:21;;;;;;;19.42;10.10;;;0.60;92.40;;;;;;5009104;28;20543;-82
2022/01/14 04:22:48;;;;;;;22.70;11.95;;;0.60;92.40;;;;;;5028762;28;20102;-82
2022/01/14 04:25:14;;;;;;;20.52;10.63;;;0.70;92.40;;;;;;5039273;28;20031;-81
2022/01/14 04:27:40;;;;;;;21.70;11.70;;;0.70;92.40;;;;;;5013282;28;20025;-82
2022/01/14 04:30:06;;;;;;;26.55;13.55;;;0.60;92.40;;;;;;5013657;28;20112;-81
2022/01/14 04:32:31;;;;;;;21.98;11.23;;;0.60;92.40;;;;;;4997094;28;20025;-81
2022/01/14 04:34:57;;;;;;;22.42;11.45;;;0.60;92.40;;;;;;5028513;28;20441;-81
2022/01/14 04:37:22;;;;;;;22.58;10.73;;;0.60;92.40;;;;;;5012265;28;20175;-81
2022/01/14 04:39:48;;;;;;;24.10;12.27;;;0.60;92.50;;;;;;4996974;28;23515;-81
2022/01/14 04:42:13;;;;;;;22.27;11.43;;;0.60;92.50;;;;;;5006826;28;20068;-82
2022/01/14 04:44:39;;;;;;;20.02;11.23;;;0.60;92.40;;;;;;5012775;28;20670;-82
2022/01/14 04:47:17;;;;;;;21.95;10.95;;;0.60;92.50;;;;;;5042019;28;20038;-81
2022/01/14 04:49:43;;;;;;;25.20;10.98;;;0.60;92.50;;;;;;5016156;28;20021;-81
2022/01/14 04:52:08;;;;;;;23.38;11.02;;;0.60;92.40;;;;;;5000523;28;20025;-81
2022/01/14 04:54:34;;;;;;;21.58;10.70;;;0.60;92.40;;;;;;5011331;28;20033;-81
2022/01/14 04:57:00;;;;;;;22.75;11.32;;;0.60;92.40;;;;;;5022020;28;20041;-82
2022/01/14 04:59:26;;;;;;;22.33;10.82;;;0.60;92.50;;;;;;5010288;28;20053;-81
2022/01/14 05:01:51;;;;;;;28.80;13.93;;;0.60;92.50;;;;;;5030186;28;20044;-84
2022/01/14 05:04:17;;;;;;;25.83;11.18;;;0.60;92.50;;;;;;5025871;28;20030;-81
2022/01/14 05:06:46;;;;;;;64.30;25.92;;;0.60;92.50;;;;;;5034194;28;20033;-81
2022/01/14 05:09:22;;;;;;;31.65;14.02;;;0.60;92.50;;;;;;5030318;28;20033;-84
2022/01/14 05:11:54;;;;;;;37.58;18.00;;;0.60;92.50;;;;;;4979996;28;20105;-81
2022/01/14 05:14:19;;;;;;;25.48;11.68;;;0.60;92.40;;;;;;5008254;28;20044;-82
2022/01/14 05:16:46;;;;;;;22.25;11.27;;;0.60;92.40;;;;;;5017468;28;20042;-84
2022/01/14 05:19:11;;;;;;;27.73;13.95;;;0.60;92.40;;;;;;5030700;28;20036;-81
2022/01/14 05:21:37;;;;;;;21.73;11.18;;;0.60;92.40;;;;;;5015315;28;20442;-83
2022/01/14 05:24:03;;;;;;;41.33;18.50;;;0.60;92.40;;;;;;5011303;28;20033;-82
2022/01/14 05:26:29;;;;;;;37.90;24.13;;;0.60;92.50;;;;;;5002481;28;20035;-81
2022/01/14 05:28:54;;;;;;;29.42;13.63;;;0.60;92.40;;;;;;5014571;28;20128;-81
2022/01/14 05:31:19;;;;;;;25.23;12.40;;;0.50;92.40;;;;;;5013987;28;20672;-82
2022/01/14 05:33:47;;;;;;;25.08;12.63;;;0.50;92.50;;;;;;5007177;28;20060;-81
2022/01/14 05:36:12;;;;;;;24.33;11.27;;;0.60;92.50;;;;;;5021997;28;20056;-81
2022/01/14 05:38:38;;;;;;;26.38;12.80;;;0.50;92.40;;;;;;5008417;28;20030;-81
2022/01/14 05:41:03;;;;;;;21.73;10.98;;;0.50;92.40;;;;;;5025565;28;20029;-81
2022/01/14 05:43:29;;;;;;;20.60;10.15;;;0.50;92.40;;;;;;5013346;28;20037;-81
2022/01/14 05:45:54;;;;;;;24.60;11.00;;;0.50;92.50;;;;;;5028049;28;20131;-80
2022/01/14 05:48:20;;;;;;;24.85;12.75;;;0.50;92.50;;;;;;5006496;28;20475;-80
2022/01/14 05:50:45;;;;;;;39.63;19.80;;;0.50;92.50;;;;;;5024692;28;20036;-81
2022/01/14 05:53:11;;;;;;;59.38;27.60;;;0.40;92.50;;;;;;5006641;28;20052;-80
2022/01/14 05:55:36;;;;;;;28.58;14.20;;;0.50;92.50;;;;;;5020214;28;20036;-81
2022/01/14 05:58:02;;;;;;;15.88;8.80;;;0.50;92.50;;;;;;5007732;28;20029;-84
2022/01/14 06:00:28;;;;;;;19.73;9.20;;;0.40;92.40;;;;;;5010827;28;20029;-84
2022/01/14 06:02:53;;;;;;;17.55;8.85;;;0.40;92.40;;;;;;5023662;28;20063;-83
2022/01/14 06:05:19;;;;;;;18.60;9.80;;;0.40;92.40;;;;;;4987547;28;20025;-82
2022/01/14 06:07:45;;;;;;;17.85;9.48;;;0.30;92.30;;;;;;5025448;28;20083;-82
2022/01/14 06:10:10;;;;;;;19.98;9.85;;;0.30;92.30;;;;;;5011238;28;20047;-81
2022/01/14 06:12:36;;;;;;;19.88;9.73;;;0.30;92.30;;;;;;5031514;28;20025;-82
2022/01/14 06:15:03;;;;;;;15.52;8.35;;;0.30;92.30;;;;;;5017813;28;20063;-82
2022/01/14 06:17:28;;;;;;;22.73;11.88;;;0.20;92.30;;;;;;5006117;28;20044;-81
2022/01/14 06:19:54;;;;;;;28.10;14.77;;;0.20;92.30;;;;;;5012159;28;20041;-81
2022/01/14 06:22:19;;;;;;;21.60;10.65;;;0.20;92.30;;;;;;5045835;28;20033;-82
2022/01/14 06:24:45;;;;;;;22.90;12.20;;;0.20;92.30;;;;;;5002037;28;20072;-82
2022/01/14 06:27:10;;;;;;;21.23;10.93;;;0.20;92.40;;;;;;5036862;28;20034;-82
2022/01/14 06:29:36;;;;;;;21.58;12.02;;;0.20;92.40;;;;;;5021322;28;20029;-82
2022/01/14 06:32:01;;;;;;;20.48;10.98;;;0.20;92.40;;;;;;5022607;28;20376;-82
2022/01/14 06:34:27;;;;;;;19.35;9.90;;;0.20;92.40;;;;;;5033456;28;20113;-82
2022/01/14 06:36:53;;;;;;;21.05;11.68;;;0.20;92.40;;;;;;4998462;28;20096;-81
2022/01/14 06:39:18;;;;;;;20.45;11.15;;;0.20;92.40;;;;;;4981605;28;20057;-82
2022/01/14 06:41:44;;;;;;;22.10;11.27;;;0.20;92.40;;;;;;5035696;28;20033;-82
2022/01/14 06:44:09;;;;;;;25.25;11.75;;;0.20;92.40;;;;;;5046310;28;20414;-82
2022/01/14 06:46:35;;;;;;;21.45;11.07;;;0.20;92.40;;;;;;5044674;28;20500;-81
2022/01/14 06:49:00;;;;;;;19.55;10.73;;;0.20;92.40;;;;;;5017425;28;20071;-82
2022/01/14 06:51:26;;;;;;;21.25;11.70;;;0.20;92.40;;;;;;5042386;28;20032;-82
2022/01/14 06:53:51;;;;;;;24.33;12.30;;;0.20;92.40;;;;;;4987019;28;20121;-82
2022/01/14 06:56:17;;;;;;;19.75;10.52;;;0.20;92.40;;;;;;5009283;28;20065;-81
2022/01/14 06:58:43;;;;;;;19.23;9.93;;;0.10;92.30;;;;;;5010631;28;20495;-82
2022/01/14 07:01:08;;;;;;;24.90;13.00;;;0.10;92.40;;;;;;5015902;28;20025;-82
2022/01/14 07:03:34;;;;;;;21.08;11.43;;;0.20;92.40;;;;;;5005971;28;20045;-82
2022/01/14 07:06:00;;;;;;;27.25;13.68;;;0.20;92.40;;;;;;5010963;28;20037;-81
2022/01/14 07:08:25;;;;;;;19.85;10.73;;;0.10;92.40;;;;;;5045037;28;20049;-82
2022/01/14 07:10:51;;;;;;;21.40;10.80;;;0.10;92.30;;;;;;5041420;28;20044;-82
2022/01/14 07:13:16;;;;;;;17.88;10.63;;;0.10;92.40;;;;;;4999445;28;20554;-82
2022/01/14 07:15:42;;;;;;;21.77;10.63;;;0.10;92.30;;;;;;5007222;28;20564;-82
2022/01/14 07:18:09;;;;;;;25.67;12.18;;;0.10;92.30;;;;;;4994486;28;20844;-82
2022/01/14 07:20:35;;;;;;;21.88;11.32;;;0.10;92.40;;;;;;5016416;28;20031;-82
2022/01/14 07:23:01;;;;;;;20.70;10.95;;;0.10;92.40;;;;;;5041819;28;20049;-81
2022/01/14 07:25:26;;;;;;;19.27;10.57;;;0.10;92.40;;;;;;5006859;28;20049;-81
2022/01/14 07:27:52;;;;;;;21.75;11.50;;;0.10;92.40;;;;;;5032849;28;20040;-82
2022/01/14 07:30:17;;;;;;;21.83;11.38;;;0.10;92.40;;;;;;5023783;28;20021;-82
2022/01/14 07:32:43;;;;;;;27.00;12.48;;;0.10;92.40;;;;;;5027784;28;20028;-82
2022/01/14 07:35:09;;;;;;;31.88;12.88;;;0.10;92.30;;;;;;4991535;28;20036;-82
2022/01/14 07:37:35;;;;;;;20.80;10.88;;;0.10;92.30;;;;;;5001269;28;20056;-82
2022/01/14 07:40:00;;;;;;;18.58;10.98;;;0.00;92.30;;;;;;5011515;28;20148;-81
2022/01/14 07:42:26;;;;;;;21.00;10.63;;;0.00;92.30;;;;;;4994315;28;20034;-81
2022/01/14 07:44:51;;;;;;;24.40;11.88;;;0.00;92.30;;;;;;5002700;28;20045;-82
2022/01/14 07:47:17;;;;;;;15.40;8.85;;;0.00;92.30;;;;;;5027948;28;20518;-82
2022/01/14 07:49:43;;;;;;;18.48;9.70;;;0.10;92.30;;;;;;5008852;28;20482;-81
2022/01/14 07:52:08;;;;;;;17.10;8.40;;;0.00;92.30;;;;;;5000072;28;20049;-82
2022/01/14 07:54:34;;;;;;;17.90;10.05;;;0.00;92.30;;;;;;5000262;28;20084;-81
2022/01/14 07:57:00;;;;;;;28.83;20.67;;;0.00;92.30;;;;;;5024230;28;20045;-81
2022/01/14 07:59:27;;;;;;;18.88;10.95;;;0.00;92.30;;;;;;4976518;28;20051;-81
2022/01/14 08:01:56;;;;;;;14.18;8.82;;;0.00;92.30;;;;;;5007148;28;20048;-82
2022/01/14 08:04:22;;;;;;;14.88;8.38;;;0.00;92.30;;;;;;5012180;28;20045;-81
2022/01/14 08:06:50;;;;;;;15.13;8.50;;;0.00;92.30;;;;;;4994651;28;20107;-81
2022/01/14 08:09:16;;;;;;;16.40;8.70;;;0.00;92.30;;;;;;5035061;28;20037;-81
2022/01/14 08:11:42;;;;;;;15.40;8.70;;;0.00;92.30;;;;;;5010295;28;20037;-81
2022/01/14 08:14:07;;;;;;;20.98;11.38;;;-0.10;92.20;;;;;;5025166;28;20049;-81
2022/01/14 08:16:33;;;;;;;22.92;13.40;;;0.00;92.30;;;;;;5003757;28;20047;-81
2022/01/14 08:18:59;;;;;;;17.70;9.95;;;-0.10;92.30;;;;;;5037569;28;20379;-81
2022/01/14 08:21:24;;;;;;;18.17;11.02;;;0.00;92.30;;;;;;4998521;28;20048;-81
2022/01/14 08:23:50;;;;;;;17.95;10.25;;;0.00;92.30;;;;;;5044501;28;20041;-81
2022/01/14 08:26:15;;;;;;;18.05;9.35;;;0.00;92.30;;;;;;5008083;28;20067;-81
2022/01/14 08:28:41;;;;;;;17.60;9.68;;;0.00;92.30;;;;;;5012188;28;20513;-81
2022/01/14 08:31:07;;;;;;;17.80;9.85;;;0.10;92.70;;;;;;4995543;28;20045;-82
2022/01/14 08:33:32;;;;;;;14.95;9.55;;;0.10;92.30;;;;;;5042689;28;20124;-82
2022/01/14 08:35:58;;;;;;;16.90;9.85;;;0.10;92.30;;;;;;5030180;28;20040;-82
2022/01/14 08:38:24;;;;;;;15.48;8.25;;;0.10;92.30;;;;;;5016892;28;20128;-82
2022/01/14 08:40:49;;;;;;;16.27;9.10;;;0.10;92.30;;;;;;5031324;28;20029;-82
2022/01/14 08:43:15;;;;;;;18.48;9.10;;;0.10;92.30;;;;;;5021345;28;20071;-82
2022/01/14 08:45:40;;;;;;;16.83;9.18;;;0.20;92.40;;;;;;5030843;28;20025;-82
2022/01/14 08:48:06;;;;;;;19.75;9.00;;;0.20;92.40;;;;;;4989927;28;20033;-81
2022/01/14 08:50:37;;;;;;;16.58;8.20;;;0.20;92.40;;;;;;5049897;28;20386;-82
2022/01/14 08:53:04;;;;;;;21.88;11.23;;;0.30;92.40;;;;;;5032875;28;20151;-81
2022/01/14 08:55:29;;;;;;;17.17;8.73;;;0.30;92.40;;;;;;5039813;28;20025;-82
2022/01/14 08:57:55;;;;;;;14.48;8.43;;;0.30;92.40;;;;;;5043310;28;20109;-82
2022/01/14 09:00:22;;;;;;;16.70;9.23;;;0.40;92.40;;;;;;5036172;28;20048;-81
2022/01/14 09:02:47;;;;;;;18.23;8.73;;;0.40;92.40;;;;;;5036497;28;20260;-82
2022/01/14 09:05:13;;;;;;;15.95;8.48;;;0.40;92.40;;;;;;5004953;28;20510;-82
2022/01/14 09:07:39;;;;;;;16.38;9.00;;;0.40;92.40;;;;;;5010192;28;20025;-81
2022/01/14 09:10:05;;;;;;;15.63;8.63;;;0.50;92.40;;;;;;5017265;28;20399;-82
2022/01/14 09:12:31;;;;;;;15.63;8.18;;;0.50;92.40;;;;;;5014957;28;20055;-82
2022/01/14 09:14:57;;;;;;;24.08;10.20;;;0.50;92.40;;;;;;5045556;28;20045;-82
2022/01/14 09:17:22;;;;;;;18.48;9.15;;;0.60;92.40;;;;;;4976853;28;20022;-82
2022/01/14 09:19:48;;;;;;;19.83;9.73;;;0.60;92.40;;;;;;4994502;28;20503;-82
2022/01/14 09:22:16;;;;;;;18.33;9.32;;;0.70;92.40;;;;;;5028113;28;20296;-82
2022/01/14 09:24:41;;;;;;;18.30;9.82;;;0.80;92.50;;;;;;5038647;28;20045;-82
2022/01/14 09:27:07;;;;;;;17.30;9.20;;;0.80;92.40;;;;;;4982864;28;20042;-82
2022/01/14 09:29:33;;;;;;;18.13;10.00;;;0.90;92.40;;;;;;5014161;28;20124;-82
2022/01/14 09:31:58;;;;;;;19.55;10.27;;;0.90;92.40;;;;;;5029330;28;20036;-82
2022/01/14 09:34:24;;;;;;;19.90;10.25;;;0.90;92.40;;;;;;5028047;28;20045;-82
2022/01/14 09:36:49;;;;;;;17.92;10.00;;;1.00;92.40;;;;;;4986325;28;20479;-82
2022/01/14 09:39:15;;;;;;;20.25;9.75;;;1.00;92.40;;;;;;5029162;28;20052;-82
2022/01/14 09:41:40;;;;;;;20.95;10.27;;;1.00;92.80;;;;;;5010825;28;20029;-82
2022/01/14 09:44:06;;;;;;;22.95;11.30;;;1.10;92.40;;;;;;5008630;28;20045;-82
2022/01/14 09:46:31;;;;;;;19.63;10.57;;;1.10;92.50;;;;;;5031939;28;20079;-81
2022/01/14 09:48:57;;;;;;;21.65;11.40;;;1.10;92.40;;;;;;5012627;28;20033;-82
2022/01/14 09:51:23;;;;;;;20.85;10.55;;;1.10;92.40;;;;;;5026324;28;20047;-83
2022/01/14 09:53:48;;;;;;;23.83;11.13;;;1.10;92.40;;;;;;5044485;28;20037;-82
2022/01/14 09:56:15;;;;;;;21.45;11.30;;;1.20;92.40;;;;;;5025472;28;20047;-82
2022/01/14 09:58:46;;;;;;;20.58;10.23;;;1.20;92.40;;;;;;5017964;28;20037;-81
2022/01/14 10:01:17;;;;;;;21.30;10.27;;;1.30;92.40;;;;;;5002877;28;20136;-82
2022/01/14 10:03:53;;;;;;;21.90;11.40;;;1.40;92.50;;;;;;5019268;28;20057;-82
2022/01/14 10:06:34;;;;;;;49.70;26.83;;;1.40;92.50;;;;;;5003978;28;20032;-82
2022/01/14 10:09:37;;;;;;;54.05;28.77;;;1.50;92.50;;;;;;5040158;28;20037;-82
2022/01/14 10:12:13;;;;;;;22.13;11.43;;;1.50;92.40;;;;;;5014032;28;20506;-82
2022/01/14 10:14:40;;;;;;;21.25;10.98;;;1.50;92.40;;;;;;5024335;28;20403;-82
2022/01/14 10:17:07;;;;;;;20.80;11.20;;;1.50;92.40;;;;;;5006883;28;20095;-81
2022/01/14 10:19:37;;;;;;;20.42;10.95;;;1.60;92.40;;;;;;4999185;28;20080;-82
2022/01/14 10:22:17;;;;;;;23.42;12.07;;;1.70;92.40;;;;;;5009702;28;20040;-82
2022/01/14 10:25:12;;;;;;;21.20;11.18;;;1.70;92.40;;;;;;4993641;28;20037;-81
2022/01/14 10:27:40;;;;;;;216.45;97.50;;;1.80;92.40;;;;;;5018468;28;20462;-81
2022/01/14 10:30:31;;;;;;;37.78;18.33;;;1.80;92.30;;;;;;4996780;28;20034;-82
2022/01/14 10:33:08;;;;;;;27.42;13.60;;;1.90;92.30;;;;;;5010606;28;20029;-82
2022/01/14 10:35:35;;;;;;;27.85;14.40;;;1.90;92.30;;;;;;5017869;28;20037;-82
2022/01/14 10:38:04;;;;;;;30.38;14.10;;;2.00;92.30;;;;;;5024701;28;20029;-82
2022/01/14 10:40:32;;;;;;;30.33;14.40;;;2.00;92.30;;;;;;5018037;28;20132;-82
2022/01/14 10:43:08;;;;;;;25.75;13.68;;;2.10;92.30;;;;;;5008181;28;20405;-82
2022/01/14 10:45:34;;;;;;;25.90;12.90;;;2.20;92.30;;;;;;5029539;28;20036;-84
2022/01/14 10:48:07;;;;;;;23.23;13.55;;;2.30;92.30;;;;;;5016453;28;20383;-83
2022/01/14 10:50:41;;;;;;;25.05;13.13;;;2.30;92.30;;;;;;5025289;28;20025;-80
2022/01/14 10:53:13;;;;;;;23.40;13.23;;;2.40;92.30;;;;;;5029941;28;20072;-80
2022/01/14 10:55:44;;;;;;;23.58;12.38;;;2.40;92.20;;;;;;5002256;28;20585;-81
2022/01/14 10:58:13;;;;;;;26.20;13.68;;;2.50;92.20;;;;;;4997998;28;20033;-81
2022/01/14 11:00:46;;;;;;;27.15;12.75;;;2.50;92.20;;;;;;5034843;28;20124;-82
2022/01/14 11:03:11;;;;;;;25.85;13.07;;;2.60;92.20;;;;;;5011307;28;20055;-80
2022/01/14 11:05:37;;;;;;;26.38;13.00;;;2.70;92.30;;;;;;4999934;28;20029;-82
2022/01/14 11:08:03;;;;;;;24.35;13.70;;;2.90;92.30;;;;;;5019434;28;20920;-81
2022/01/14 11:10:32;;;;;;;23.65;12.30;;;3.10;92.40;;;;;;5004117;28;20073;-81
2022/01/14 11:12:58;;;;;;;27.92;13.45;;;3.20;92.30;;;;;;5016849;28;20029;-82
2022/01/14 11:15:27;;;;;;;26.85;12.90;;;3.40;92.10;;;;;;5033815;28;20121;-82
2022/01/14 11:17:55;;;;;;;22.23;13.07;;;3.50;92.10;;;;;;5017658;28;20039;-83
2022/01/14 11:20:28;;;;;;;21.52;12.20;;;3.60;92.00;;;;;;5016426;28;20037;-83
2022/01/14 11:25:42;;;;;;;25.48;12.38;;;4.00;91.90;;;;;;5026733;28;20036;-82
2022/01/14 11:28:08;;;;;;;25.00;14.45;;;4.10;91.80;;;;;;5027367;28;20124;-82
2022/01/14 11:30:35;;;;;;;29.63;16.90;;;4.30;91.80;;;;;;5008892;28;20174;-82
2022/01/14 11:33:03;;;;;;;25.35;14.07;;;4.50;91.80;;;;;;5005763;28;20521;-83
2022/01/14 11:35:29;;;;;;;24.05;13.88;;;4.70;91.70;;;;;;4990098;28;20045;-83
2022/01/14 11:37:55;;;;;;;21.40;12.00;;;4.80;91.70;;;;;;4995940;28;20117;-83
2022/01/14 11:40:20;;;;;;;21.98;12.02;;;5.00;91.70;;;;;;5045777;28;20041;-83
2022/01/14 11:42:58;;;;;;;21.88;12.80;;;5.20;91.60;;;;;;4981934;28;20644;-83
2022/01/14 11:45:40;;;;;;;22.25;11.45;;;5.30;91.50;;;;;;5037118;28;20522;-83
2022/01/14 11:48:05;;;;;;;22.90;12.48;;;5.50;91.40;;;;;;5031204;28;20414;-82
2022/01/14 11:50:31;;;;;;;24.38;12.10;;;5.70;91.40;;;;;;5002612;28;20033;-83
2022/01/14 11:52:58;;;;;;;20.63;11.38;;;5.80;91.30;;;;;;5038934;28;20453;-83
2022/01/14 11:55:34;;;;;;;25.73;12.48;;;6.00;91.20;;;;;;5002214;28;20056;-82
2022/01/14 11:58:12;;;;;;;21.27;11.52;;;6.10;91.10;;;;;;5006533;28;20173;-81
2022/01/14 12:00:41;;;;;;;20.45;13.00;;;6.30;91.10;;;;;;5011594;28;20059;-81
2022/01/14 12:03:06;;;;;;;23.85;11.55;;;6.50;91.00;;;;;;5001026;28;20112;-82
2022/01/14 12:05:37;;;;;;;24.48;11.48;;;6.60;90.90;;;;;;5032531;28;20117;-81
2022/01/14 12:08:03;;;;;;;23.15;11.40;;;6.80;91.10;;;;;;5020020;28;20205;-81
2022/01/14 12:10:32;;;;;;;22.15;10.90;;;6.90;90.60;;;;;;5034173;28;20322;-81
2022/01/14 12:13:47;;;;;;;19.80;11.60;;;7.00;90.50;;;;;;5026176;28;20061;-82
2022/01/14 12:16:19;;;;;;;19.45;10.40;;;7.20;90.10;;;;;;5030727;28;20064;-81
2022/01/14 12:18:56;;;;;;;22.33;10.88;;;7.40;90.30;;;;;;5039954;28;20132;-82
2022/01/14 12:21:48;;;;;;;17.95;10.38;;;7.50;90.20;;;;;;5031232;28;20495;-82
2022/01/14 12:24:27;;;;;;;20.67;10.82;;;7.70;89.80;;;;;;5020797;28;20043;-82
2022/01/14 12:26:52;;;;;;;17.50;10.20;;;7.80;89.90;;;;;;5039645;28;20029;-82
2022/01/14 12:29:19;;;;;;;20.63;11.20;;;8.00;90.00;;;;;;5032120;28;20048;-82
2022/01/14 12:32:09;;;;;;;20.58;11.07;;;8.10;89.70;;;;;;5008049;28;20047;-82
2022/01/14 12:34:44;;;;;;;17.65;10.95;;;8.30;88.70;;;;;;5015364;28;20208;-82
2022/01/14 12:37:21;;;;;;;22.58;10.30;;;8.40;89.10;;;;;;5006663;28;20037;-82
2022/01/14 12:39:49;;;;;;;20.23;10.20;;;8.50;88.70;;;;;;5024463;28;20052;-81
2022/01/14 12:42:14;;;;;;;17.02;9.57;;;8.70;88.60;;;;;;5027152;28;20055;-82
2022/01/14 12:44:40;;;;;;;19.50;11.10;;;8.80;88.30;;;;;;5002673;28;20400;-82
2022/01/14 12:47:08;;;;;;;20.02;10.75;;;8.90;88.30;;;;;;5029767;28;20066;-82
2022/01/14 12:49:37;;;;;;;19.63;10.75;;;9.10;88.10;;;;;;4977449;28;20528;-82
2022/01/14 12:52:11;;;;;;;18.75;11.02;;;9.20;87.90;;;;;;5047961;28;20430;-82
2022/01/14 12:54:41;;;;;;;16.73;10.35;;;9.40;87.40;;;;;;5029717;28;20033;-81
2022/01/14 12:57:07;;;;;;;19.65;10.27;;;9.50;87.00;;;;;;5027393;28;20029;-81
2022/01/14 12:59:38;;;;;;;18.65;10.45;;;9.60;86.90;;;;;;5025212;28;20052;-81
2022/01/14 13:02:05;;;;;;;19.15;10.27;;;9.80;86.50;;;;;;5026936;28;20037;-82
2022/01/14 13:04:30;;;;;;;17.33;10.38;;;9.90;86.20;;;;;;5026418;28;20087;-82